Terminal Aerodrome Forecast
Issued by NWS Lake Charles, LA

Home | Current Version | Previous Version | Text Only | Print | Product List | Glossary On
Versions: 1 2 3 4 5 6 7 8 9 10 11 12 13 14 15 16 17 18
000
FTUS44 KLCH 211727 AAA
TAFARA
TAF AMD
KARA 211727Z 2117/2218 VRB05KT P6SM BKN035 BKN050
     FM212000 VRB05KT P6SM SCT035 SCT060
     FM220000 VRB03KT P6SM FEW250
      TEMPO 2211/2213 5SM BR=

USA.gov is the U.S. government's official web portal to all federal, state and local government web resources and services.